createdAt,value
2018-12-09T00:02:04.785Z,99.90
2018-12-09T00:04:32.272Z,99.90
2018-12-09T00:06:59.757Z,99.90
2018-12-09T00:09:27.239Z,99.90
2018-12-09T00:11:55.049Z,99.90
2018-12-09T00:14:22.537Z,99.90
2018-12-09T00:16:50.010Z,99.90
2018-12-09T00:19:17.501Z,99.90
2018-12-09T00:21:45.074Z,99.90
2018-12-09T00:24:12.548Z,99.90
2018-12-09T00:26:40.020Z,99.90
2018-12-09T00:29:07.492Z,99.90
2018-12-09T00:31:34.980Z,99.90
2018-12-09T00:34:02.577Z,99.90
2018-12-09T00:36:30.059Z,99.90
2018-12-09T00:38:57.536Z,99.90
2018-12-09T00:41:25.009Z,99.90
2018-12-09T00:46:26.896Z,99.90
2018-12-09T00:48:54.460Z,99.90
2018-12-09T00:51:21.946Z,99.90
2018-12-09T00:53:49.420Z,99.90
2018-12-09T00:56:16.897Z,99.90
2018-12-09T00:58:44.380Z,99.90
2018-12-09T01:01:11.943Z,99.90
2018-12-09T01:03:39.416Z,99.90
2018-12-09T01:06:06.893Z,99.90
2018-12-09T01:08:34.376Z,99.90
2018-12-09T01:11:01.855Z,99.90
2018-12-09T01:13:29.708Z,99.90
2018-12-09T01:15:57.181Z,99.90
2018-12-09T01:18:24.664Z,99.90
2018-12-09T01:20:52.144Z,99.90
2018-12-09T01:23:19.709Z,99.90
2018-12-09T01:25:47.196Z,99.90
2018-12-09T01:28:14.770Z,99.90
2018-12-09T01:30:42.284Z,99.90
2018-12-09T01:33:10.180Z,99.90
2018-12-09T01:35:37.657Z,99.90
2018-12-09T01:38:05.141Z,99.90
2018-12-09T01:40:34.677Z,99.90
2018-12-09T01:43:02.160Z,99.90
2018-12-09T01:45:29.649Z,99.90
2018-12-09T01:47:57.138Z,99.90
2018-12-09T01:50:24.625Z,99.90
2018-12-09T01:52:56.053Z,99.90
2018-12-09T01:55:23.948Z,99.90
2018-12-09T01:57:51.430Z,99.90
2018-12-09T02:00:18.913Z,99.90
2018-12-09T02:02:46.405Z,99.90
2018-12-09T02:05:13.969Z,99.90
2018-12-09T02:07:41.444Z,99.90
2018-12-09T02:10:09.188Z,99.90
2018-12-09T02:12:36.669Z,99.90
2018-12-09T02:15:04.323Z,99.90
2018-12-09T02:17:31.921Z,99.90
2018-12-09T02:19:59.404Z,99.90
2018-12-09T02:22:26.889Z,99.90
2018-12-09T02:24:54.374Z,99.90
2018-12-09T02:27:21.858Z,99.90
2018-12-09T02:29:49.332Z,99.90
2018-12-09T02:32:16.817Z,99.90
2018-12-09T02:34:48.244Z,99.90
2018-12-09T02:37:15.721Z,99.90
2018-12-09T02:39:43.281Z,99.90
2018-12-09T02:42:10.768Z,99.90
2018-12-09T02:44:38.255Z,99.90
2018-12-09T02:47:05.733Z,99.90
2018-12-09T02:49:33.213Z,99.90
2018-12-09T02:52:00.688Z,99.90
2018-12-09T02:54:28.172Z,99.90
2018-12-09T02:56:55.649Z,99.90
2018-12-09T02:59:23.128Z,99.90
2018-12-09T03:01:50.681Z,99.90
2018-12-09T03:04:18.170Z,99.90
2018-12-09T03:06:45.761Z,99.90
2018-12-09T03:09:13.237Z,99.90
2018-12-09T03:11:40.716Z,99.90
2018-12-09T03:14:08.197Z,99.90
2018-12-09T03:16:35.671Z,99.90
2018-12-09T03:19:03.149Z,99.90
2018-12-09T03:21:30.633Z,99.90
2018-12-09T03:23:58.122Z,99.90
2018-12-09T03:26:25.613Z,99.90
2018-12-09T03:28:53.089Z,99.90
2018-12-09T03:31:20.586Z,99.90
2018-12-09T03:33:48.156Z,99.90
2018-12-09T03:36:15.636Z,99.90
2018-12-09T03:38:43.113Z,99.90
2018-12-09T03:41:10.597Z,99.90
2018-12-09T03:43:38.076Z,99.90
2018-12-09T03:46:05.552Z,99.90
2018-12-09T03:48:33.034Z,99.90
2018-12-09T03:51:00.508Z,99.90
2018-12-09T03:53:27.993Z,99.90
2018-12-09T03:55:55.477Z,99.90
2018-12-09T03:58:22.956Z,99.90
2018-12-09T04:00:50.445Z,99.90
2018-12-09T04:03:17.920Z,99.90
2018-12-09T04:05:45.406Z,99.90
2018-12-09T04:08:12.994Z,99.90
2018-12-09T04:10:40.475Z,99.90
2018-12-09T04:13:07.959Z,99.90
2018-12-09T04:15:37.527Z,99.90
2018-12-09T04:18:05.083Z,99.90
2018-12-09T04:20:32.564Z,99.90
2018-12-09T04:23:00.041Z,99.90
2018-12-09T04:25:27.520Z,99.90
2018-12-09T04:27:54.996Z,99.90
2018-12-09T04:30:22.471Z,99.90
2018-12-09T04:32:49.952Z,99.90
2018-12-09T04:35:17.432Z,99.90
2018-12-09T04:37:44.905Z,99.90
2018-12-09T04:40:12.384Z,99.90
2018-12-09T04:42:39.862Z,99.90
2018-12-09T04:45:07.488Z,99.90
2018-12-09T04:47:34.987Z,99.90
2018-12-09T04:50:02.537Z,99.90
2018-12-09T04:52:30.013Z,99.90
2018-12-09T04:54:57.492Z,99.90
2018-12-09T04:57:24.978Z,99.90
2018-12-09T04:59:56.512Z,99.90
2018-12-09T05:02:23.994Z,99.90
2018-12-09T05:04:51.469Z,99.90
2018-12-09T05:07:19.356Z,99.90
2018-12-09T05:09:46.838Z,99.90
2018-12-09T05:12:14.331Z,99.90
2018-12-09T05:14:41.921Z,99.90
2018-12-09T05:17:09.400Z,99.90
2018-12-09T05:19:37.189Z,99.90
2018-12-09T05:22:04.668Z,99.90
2018-12-09T05:24:32.149Z,99.90
2018-12-09T05:26:59.624Z,99.90
2018-12-09T05:29:27.108Z,99.90
2018-12-09T05:31:54.585Z,99.90
2018-12-09T05:34:22.068Z,99.90
2018-12-09T05:36:49.550Z,99.90
2018-12-09T05:39:17.040Z,99.90
2018-12-09T05:41:44.509Z,99.90
2018-12-09T05:44:11.989Z,99.90
2018-12-09T05:46:39.469Z,99.90
2018-12-09T05:49:06.944Z,99.90
2018-12-09T05:51:34.428Z,99.90
2018-12-09T05:54:01.897Z,99.90
2018-12-09T05:56:29.377Z,99.90
2018-12-09T05:58:56.859Z,99.90
2018-12-09T06:01:24.340Z,99.90
2018-12-09T06:03:51.821Z,99.90
2018-12-09T06:06:19.293Z,99.90
2018-12-09T06:08:46.769Z,99.90
2018-12-09T06:11:14.464Z,99.90
2018-12-09T06:13:41.944Z,99.90
2018-12-09T06:16:09.421Z,99.90
2018-12-09T06:18:36.901Z,99.90
2018-12-09T06:21:04.385Z,99.90
2018-12-09T06:23:32.272Z,99.90
2018-12-09T06:25:59.756Z,99.90
2018-12-09T06:28:27.337Z,99.90
2018-12-09T06:30:54.808Z,99.90
2018-12-09T06:33:22.303Z,99.90
2018-12-09T06:35:50.185Z,99.90
2018-12-09T06:38:17.687Z,99.90
2018-12-09T06:40:45.276Z,99.90
2018-12-09T06:43:12.754Z,99.90
2018-12-09T06:45:40.237Z,99.90
2018-12-09T06:48:07.717Z,99.90
2018-12-09T06:50:35.193Z,99.90
2018-12-09T06:53:02.672Z,99.90
2018-12-09T06:55:30.149Z,99.90
2018-12-09T07:00:50.297Z,99.90
2018-12-09T07:03:17.849Z,99.90
2018-12-09T07:05:45.406Z,99.90
2018-12-09T07:08:12.880Z,99.90
2018-12-09T07:10:40.769Z,99.90
2018-12-09T07:13:08.249Z,99.90
2018-12-09T07:15:35.728Z,99.90
2018-12-09T07:18:03.225Z,99.90
2018-12-09T07:20:30.706Z,99.90
2018-12-09T07:22:58.188Z,99.90
2018-12-09T07:25:25.669Z,99.90
2018-12-09T07:27:53.141Z,99.90
2018-12-09T07:30:20.620Z,99.90
2018-12-09T07:32:48.108Z,99.90
2018-12-09T07:35:15.591Z,99.90
2018-12-09T07:37:43.485Z,99.90
2018-12-09T07:40:11.083Z,99.90
2018-12-09T07:42:38.593Z,99.90
2018-12-09T07:45:06.068Z,99.90
2018-12-09T07:47:33.550Z,99.90
2018-12-09T07:50:01.236Z,99.90
2018-12-09T07:52:28.713Z,99.90
2018-12-09T07:54:56.188Z,99.90
2018-12-09T07:57:23.683Z,99.90
2018-12-09T07:59:51.152Z,99.90
2018-12-09T08:02:18.647Z,99.90
2018-12-09T08:04:46.117Z,99.90
2018-12-09T08:07:13.593Z,99.90
2018-12-09T08:09:41.072Z,99.90
2018-12-09T08:12:08.549Z,99.90
2018-12-09T08:14:39.601Z,99.90
2018-12-09T08:17:07.078Z,99.90
2018-12-09T08:19:34.554Z,99.90
2018-12-09T08:22:02.043Z,99.90
2018-12-09T08:24:29.513Z,99.90
2018-12-09T08:26:56.992Z,99.90
2018-12-09T08:29:24.469Z,99.90
2018-12-09T08:31:51.936Z,99.90
2018-12-09T08:34:19.408Z,99.90
2018-12-09T08:36:46.884Z,99.90
2018-12-09T08:39:14.356Z,99.90
2018-12-09T08:41:41.837Z,99.90
2018-12-09T08:44:09.309Z,99.90
2018-12-09T08:46:36.786Z,99.90
2018-12-09T08:49:04.268Z,99.90
2018-12-09T08:51:31.767Z,99.90
2018-12-09T08:53:59.243Z,99.90
2018-12-09T08:56:26.711Z,99.90
2018-12-09T08:58:54.184Z,99.90
2018-12-09T09:01:21.662Z,99.90
2018-12-09T09:03:49.136Z,99.90
2018-12-09T09:06:16.623Z,99.90
2018-12-09T09:11:36.989Z,99.90
2018-12-09T09:14:04.469Z,99.90
2018-12-09T09:16:32.048Z,99.40
2018-12-09T09:18:59.540Z,97.70
2018-12-09T09:21:27.014Z,99.90
2018-12-09T09:23:54.516Z,92.20
2018-12-09T09:26:21.999Z,88.20
2018-12-09T09:28:49.479Z,83.90
2018-12-09T09:31:16.953Z,89.10
2018-12-09T09:33:45.008Z,94.00
2018-12-09T09:36:12.716Z,99.90
2018-12-09T09:38:40.193Z,99.90
2018-12-09T09:41:07.744Z,99.90
2018-12-09T09:43:35.212Z,99.90
2018-12-09T09:46:02.684Z,99.90
2018-12-09T09:48:30.152Z,99.90
2018-12-09T09:50:57.626Z,99.90
2018-12-09T09:53:25.185Z,99.90
2018-12-09T09:55:52.664Z,99.90
2018-12-09T09:58:20.137Z,99.90
2018-12-09T10:00:47.613Z,99.90
2018-12-09T10:03:15.093Z,99.90
2018-12-09T10:05:42.640Z,99.90
2018-12-09T10:08:10.115Z,99.90
2018-12-09T10:10:37.585Z,99.90
2018-12-09T10:13:05.070Z,99.90
2018-12-09T10:15:32.550Z,99.90
2018-12-09T10:18:00.024Z,99.90
2018-12-09T10:20:27.506Z,99.90
2018-12-09T10:22:54.985Z,99.90
2018-12-09T10:25:22.529Z,99.90
2018-12-09T10:27:50.002Z,99.90
2018-12-09T10:30:17.481Z,99.90
2018-12-09T10:32:44.953Z,99.90
2018-12-09T10:35:12.503Z,99.90
2018-12-09T10:37:39.980Z,99.90
2018-12-09T10:40:07.634Z,99.90
2018-12-09T10:42:35.112Z,99.90
2018-12-09T10:45:02.916Z,99.90
2018-12-09T10:47:30.385Z,99.90
2018-12-09T10:49:57.865Z,99.90
2018-12-09T10:52:25.341Z,99.90
2018-12-09T10:54:52.820Z,99.90
2018-12-09T10:57:20.300Z,99.90
2018-12-09T10:59:47.776Z,99.90
2018-12-09T11:02:18.414Z,99.90
2018-12-09T11:04:46.250Z,99.90
2018-12-09T11:07:13.799Z,99.90
2018-12-09T11:09:41.308Z,99.90
2018-12-09T11:12:08.869Z,99.90
2018-12-09T11:14:36.338Z,99.90
2018-12-09T11:17:03.904Z,99.90
2018-12-09T11:19:31.384Z,99.90
2018-12-09T11:21:58.857Z,99.90
2018-12-09T11:24:26.345Z,99.90
2018-12-09T11:26:54.668Z,99.90
2018-12-09T11:29:22.445Z,99.90
2018-12-09T11:31:49.925Z,99.90
2018-12-09T11:34:17.769Z,99.90
2018-12-09T11:36:45.252Z,99.90
2018-12-09T11:39:12.731Z,99.90
2018-12-09T11:41:40.214Z,99.90
2018-12-09T11:44:07.689Z,99.90
2018-12-09T11:46:35.164Z,99.90
2018-12-09T11:49:02.637Z,99.90
2018-12-09T11:51:30.165Z,99.90
2018-12-09T11:53:57.633Z,99.90
2018-12-09T11:56:25.110Z,99.90
2018-12-09T11:58:52.590Z,99.90
2018-12-09T12:01:20.065Z,99.90
2018-12-09T12:03:47.544Z,99.90
2018-12-09T12:06:15.021Z,99.90
2018-12-09T12:08:42.496Z,99.90
2018-12-09T12:11:09.973Z,99.90
2018-12-09T12:13:37.470Z,99.90
2018-12-09T12:16:04.954Z,99.90
2018-12-09T12:18:32.426Z,99.90
2018-12-09T12:20:59.908Z,99.90
2018-12-09T12:23:27.391Z,99.90
2018-12-09T12:25:55.245Z,99.90
2018-12-09T12:28:22.726Z,99.90
2018-12-09T12:30:50.200Z,99.90
2018-12-09T12:33:17.677Z,99.90
2018-12-09T12:35:45.153Z,99.90
2018-12-09T12:38:12.629Z,99.90
2018-12-09T12:40:40.116Z,99.90
2018-12-09T12:43:07.669Z,99.90
2018-12-09T12:45:35.155Z,99.50
2018-12-09T12:48:02.712Z,99.40
2018-12-09T12:50:30.193Z,99.50
2018-12-09T12:52:57.836Z,92.90
2018-12-09T12:55:25.389Z,93.70
2018-12-09T12:57:52.866Z,94.20
2018-12-09T13:00:20.340Z,97.60
2018-12-09T13:02:47.812Z,95.60
2018-12-09T13:05:15.289Z,94.40
2018-12-09T13:07:42.769Z,88.90
2018-12-09T13:10:10.244Z,92.50
2018-12-09T13:12:37.717Z,86.70
2018-12-09T13:15:06.250Z,92.20
2018-12-09T13:17:33.721Z,98.40
2018-12-09T13:20:01.202Z,89.40
2018-12-09T13:22:28.684Z,87.40
2018-12-09T13:24:56.169Z,89.60
2018-12-09T13:27:23.655Z,82.00
2018-12-09T13:29:51.135Z,90.30
2018-12-09T13:32:18.609Z,89.40
2018-12-09T13:34:46.089Z,94.50
2018-12-09T13:37:13.636Z,94.20
2018-12-09T13:39:41.112Z,90.60
2018-12-09T13:42:08.589Z,84.70
2018-12-09T13:44:36.145Z,88.90
2018-12-09T13:47:03.733Z,96.20
2018-12-09T13:49:31.222Z,99.90
2018-12-09T13:51:58.703Z,99.90
2018-12-09T13:54:26.181Z,99.90
2018-12-09T13:56:53.661Z,99.90
2018-12-09T13:59:21.139Z,99.90
2018-12-09T14:01:48.613Z,99.90
2018-12-09T14:04:16.085Z,99.90
2018-12-09T14:06:43.561Z,99.90
2018-12-09T14:09:11.128Z,99.90
2018-12-09T14:11:38.718Z,99.90
2018-12-09T14:14:06.189Z,99.90
2018-12-09T14:16:33.780Z,99.90
2018-12-09T14:19:01.257Z,99.90
2018-12-09T14:21:28.848Z,99.90
2018-12-09T14:23:56.324Z,99.90
2018-12-09T14:26:23.809Z,99.90
2018-12-09T14:28:53.079Z,99.90
2018-12-09T14:31:20.552Z,99.90
2018-12-09T14:33:48.025Z,99.90
2018-12-09T14:36:15.594Z,99.90
2018-12-09T14:38:43.197Z,99.90
2018-12-09T14:41:10.681Z,99.90
2018-12-09T14:43:38.156Z,99.90
2018-12-09T14:46:05.708Z,99.90
2018-12-09T14:48:33.190Z,99.90
2018-12-09T14:51:00.671Z,99.90
2018-12-09T14:53:28.144Z,99.90
2018-12-09T14:55:55.624Z,99.90
2018-12-09T14:58:23.100Z,99.90
2018-12-09T15:00:50.624Z,99.90
2018-12-09T15:03:18.105Z,99.90
2018-12-09T15:05:45.580Z,99.90
2018-12-09T15:08:13.059Z,99.90
2018-12-09T15:10:40.808Z,99.90
2018-12-09T15:13:08.290Z,99.90
2018-12-09T15:15:35.878Z,99.90
2018-12-09T15:18:03.348Z,99.90
2018-12-09T15:20:30.840Z,99.90
2018-12-09T15:22:58.312Z,99.90
2018-12-09T15:25:25.889Z,99.90
2018-12-09T15:27:53.559Z,99.90
2018-12-09T15:30:21.052Z,99.90
2018-12-09T15:32:48.605Z,99.90
2018-12-09T15:35:16.077Z,99.90
2018-12-09T15:37:43.557Z,99.90
2018-12-09T15:40:11.034Z,99.90
2018-12-09T15:42:38.525Z,99.90
2018-12-09T15:45:07.200Z,99.90
2018-12-09T15:47:34.683Z,99.90
2018-12-09T15:50:02.153Z,99.90
2018-12-09T15:52:29.628Z,99.90
2018-12-09T15:54:57.100Z,99.90
2018-12-09T15:57:24.572Z,99.90
2018-12-09T15:59:52.044Z,99.90
2018-12-09T16:02:19.605Z,99.90
2018-12-09T16:04:47.077Z,99.90
2018-12-09T16:07:14.625Z,99.90
2018-12-09T16:09:42.096Z,99.90
2018-12-09T16:12:09.640Z,99.90
2018-12-09T16:14:37.113Z,99.90
2018-12-09T16:17:04.660Z,99.90
2018-12-09T16:19:32.141Z,99.90
2018-12-09T16:21:59.628Z,99.90
2018-12-09T16:24:27.108Z,99.90
2018-12-09T16:26:54.577Z,99.90
2018-12-09T16:29:22.060Z,99.90
2018-12-09T16:31:49.528Z,99.90
2018-12-09T16:34:17.004Z,99.90
2018-12-09T16:36:44.481Z,99.90
2018-12-09T16:39:12.031Z,99.90
2018-12-09T16:41:39.508Z,99.90
2018-12-09T16:44:07.137Z,99.90
2018-12-09T16:46:34.608Z,99.90
2018-12-09T16:49:02.088Z,99.90
2018-12-09T16:51:29.565Z,99.90
2018-12-09T16:53:57.038Z,99.90
2018-12-09T16:56:24.508Z,99.90
2018-12-09T16:58:51.987Z,99.90
2018-12-09T17:01:19.472Z,99.90
2018-12-09T17:03:46.948Z,99.90
2018-12-09T17:06:14.425Z,99.90
2018-12-09T17:08:41.904Z,99.90
2018-12-09T17:11:09.381Z,99.90
2018-12-09T17:13:36.860Z,99.90
2018-12-09T17:16:04.336Z,99.90
2018-12-09T17:18:31.817Z,99.90
2018-12-09T17:20:59.289Z,99.90
2018-12-09T17:23:26.809Z,99.90
2018-12-09T17:25:54.282Z,99.90
2018-12-09T17:28:21.753Z,99.90
2018-12-09T17:30:49.237Z,99.90
2018-12-09T17:33:16.712Z,99.90
2018-12-09T17:35:44.193Z,99.90
2018-12-09T17:38:11.670Z,99.90
2018-12-09T17:40:39.160Z,99.90
2018-12-09T17:43:06.638Z,99.90
2018-12-09T17:45:34.109Z,99.90
2018-12-09T17:48:02.243Z,99.90
2018-12-09T17:50:29.875Z,99.90
2018-12-09T17:52:57.348Z,99.90
2018-12-09T17:55:24.823Z,99.90
2018-12-09T17:57:52.292Z,99.90
2018-12-09T18:00:19.849Z,99.90
2018-12-09T18:02:47.334Z,99.90
2018-12-09T18:05:14.805Z,99.90
2018-12-09T18:07:42.286Z,99.90
2018-12-09T18:10:09.833Z,99.90
2018-12-09T18:12:37.317Z,99.90
2018-12-09T18:15:08.141Z,99.90
2018-12-09T18:17:35.609Z,99.90
2018-12-09T18:20:03.287Z,99.90
2018-12-09T18:22:30.919Z,99.90
2018-12-09T18:24:58.396Z,99.90
2018-12-09T18:27:25.877Z,99.90
2018-12-09T18:29:53.356Z,99.90
2018-12-09T18:32:20.913Z,99.90
2018-12-09T18:34:48.449Z,99.90
2018-12-09T18:37:15.928Z,99.90
2018-12-09T18:39:43.409Z,99.90
2018-12-09T18:42:10.885Z,99.90
2018-12-09T18:44:38.376Z,99.90
2018-12-09T18:47:05.853Z,99.90
2018-12-09T18:49:33.325Z,99.90
2018-12-09T18:52:00.819Z,99.90
2018-12-09T18:54:28.313Z,99.90
2018-12-09T18:56:55.854Z,99.90
2018-12-09T18:59:23.354Z,99.90
2018-12-09T19:01:50.992Z,99.90
2018-12-09T19:04:18.521Z,99.90
2018-12-09T19:06:46.078Z,99.90
2018-12-09T19:09:13.701Z,99.90
2018-12-09T19:11:41.181Z,99.90
2018-12-09T19:14:08.653Z,99.90
2018-12-09T19:16:36.144Z,99.90
2018-12-09T19:19:03.750Z,99.90
2018-12-09T19:21:31.241Z,99.90
2018-12-09T19:23:58.757Z,99.90
2018-12-09T19:26:26.244Z,99.90
2018-12-09T19:28:53.722Z,99.90
2018-12-09T19:31:21.194Z,99.90
2018-12-09T19:33:48.672Z,99.90
2018-12-09T19:36:16.148Z,99.90
2018-12-09T19:38:43.634Z,99.90
2018-12-09T19:41:11.117Z,99.90
2018-12-09T19:43:38.594Z,99.90
2018-12-09T19:46:06.145Z,99.90
2018-12-09T19:48:33.621Z,99.90
2018-12-09T19:51:01.092Z,99.90
2018-12-09T19:53:28.565Z,99.90
2018-12-09T19:55:56.041Z,99.90
2018-12-09T19:58:23.526Z,99.90
2018-12-09T20:00:51.005Z,99.90
2018-12-09T20:03:18.528Z,99.90
2018-12-09T20:05:46.023Z,99.90
2018-12-09T20:08:13.492Z,99.90
2018-12-09T20:10:40.976Z,99.90
2018-12-09T20:13:08.455Z,99.90
2018-12-09T20:15:36.105Z,99.90
2018-12-09T20:18:03.581Z,99.90
2018-12-09T20:20:31.068Z,99.90
2018-12-09T20:22:58.578Z,99.90
2018-12-09T20:25:26.044Z,99.90
2018-12-09T20:27:53.531Z,99.90
2018-12-09T20:30:21.003Z,99.90
2018-12-09T20:32:48.476Z,99.90
2018-12-09T20:35:15.979Z,99.90
2018-12-09T20:37:43.444Z,99.90
2018-12-09T20:40:10.920Z,99.90
2018-12-09T20:42:38.396Z,99.90
2018-12-09T20:45:08.122Z,99.90
2018-12-09T20:47:35.972Z,99.90
2018-12-09T20:50:05.198Z,99.90
2018-12-09T20:52:32.683Z,99.90
2018-12-09T20:55:00.263Z,99.90
2018-12-09T20:57:27.853Z,99.90
2018-12-09T20:59:55.345Z,99.90
2018-12-09T21:02:22.820Z,99.90
2018-12-09T21:04:50.300Z,99.90
2018-12-09T21:07:17.772Z,99.90
2018-12-09T21:09:45.249Z,99.90
2018-12-09T21:12:12.723Z,99.90
2018-12-09T21:14:40.508Z,99.90
2018-12-09T21:17:07.988Z,99.90
2018-12-09T21:19:35.460Z,99.90
2018-12-09T21:22:02.937Z,99.90
2018-12-09T21:24:30.560Z,99.90
2018-12-09T21:26:58.033Z,99.90
2018-12-09T21:29:25.508Z,99.90
2018-12-09T21:31:52.991Z,99.90
2018-12-09T21:34:20.456Z,99.90
2018-12-09T21:36:47.941Z,99.90
2018-12-09T21:39:15.424Z,99.90
2018-12-09T21:41:42.901Z,99.90
2018-12-09T21:44:10.370Z,99.90
2018-12-09T21:46:37.845Z,99.90
2018-12-09T21:49:05.330Z,99.90
2018-12-09T21:51:32.821Z,99.90
2018-12-09T21:54:00.334Z,99.90
2018-12-09T21:56:27.876Z,99.90
2018-12-09T21:58:55.348Z,99.90
2018-12-09T22:01:22.822Z,99.90
2018-12-09T22:03:51.260Z,99.90
2018-12-09T22:06:18.740Z,99.90
2018-12-09T22:08:46.210Z,99.90
2018-12-09T22:11:13.681Z,99.90
2018-12-09T22:13:41.168Z,99.90
2018-12-09T22:16:08.648Z,99.90
2018-12-09T22:18:36.137Z,99.90
2018-12-09T22:21:03.788Z,99.90
2018-12-09T22:23:31.276Z,99.90
2018-12-09T22:25:58.757Z,99.90
2018-12-09T22:28:26.228Z,99.90
2018-12-09T22:30:53.702Z,99.90
2018-12-09T22:33:21.177Z,99.90
2018-12-09T22:35:48.657Z,99.90
2018-12-09T22:38:16.128Z,99.90
2018-12-09T22:40:43.597Z,99.90
2018-12-09T22:43:11.072Z,99.90
2018-12-09T22:45:38.553Z,99.90
2018-12-09T22:48:06.024Z,99.90
2018-12-09T22:50:33.503Z,99.90
2018-12-09T22:53:00.989Z,99.90
2018-12-09T22:55:28.462Z,99.90
2018-12-09T22:57:55.942Z,99.90
2018-12-09T23:00:25.073Z,99.90
2018-12-09T23:02:58.257Z,99.90
2018-12-09T23:05:25.738Z,99.90
2018-12-09T23:07:53.888Z,99.90
2018-12-09T23:10:21.360Z,99.90
2018-12-09T23:12:48.832Z,99.90
2018-12-09T23:15:16.317Z,99.90
2018-12-09T23:17:43.796Z,99.90
2018-12-09T23:20:11.281Z,99.90
2018-12-09T23:22:38.757Z,99.90
2018-12-09T23:25:06.303Z,99.90
2018-12-09T23:27:33.781Z,99.90
2018-12-09T23:30:01.253Z,99.90
2018-12-09T23:32:28.729Z,99.90
2018-12-09T23:34:56.201Z,99.90
2018-12-09T23:37:23.673Z,99.90
2018-12-09T23:39:51.144Z,99.90
2018-12-09T23:42:18.616Z,99.90
2018-12-09T23:44:46.097Z,99.90
2018-12-09T23:47:13.573Z,99.90
2018-12-09T23:49:41.049Z,99.90
2018-12-09T23:52:08.524Z,99.90
2018-12-09T23:54:36.001Z,99.90
2018-12-09T23:57:03.472Z,99.90
2018-12-09T23:59:30.962Z,99.90
